Del Norte, Colorado
Current Conditions -  °F | °C
As of 6:25 AM on Monday 20 Oct 2014 (Local Time) from KRCV Reporting Station
Scattered Clouds Scattered Clouds  
Wind Chill: 32°   Ceiling: Unl
Heat Index: 40°   Visibility: 10mi
Dew Point: 34°   Wind: 14mph
Humidity: 78%   Direction: 270°W
Pressure: 30.32"   Gusts: NA
Location:  37.68°N, 106.35°W
Report Text: KRCV 201225Z AUTO 27012KT 10SM SCT075 05/01 A3032 RMK AO2 T00450010
Loading
Personal Weather Stations






























Interactive Weather Map
Tropical Storm Tracking
New forecast layout! Learn more

10-Day Weather Forecast

Advertisements
Track Severe Weather on mobile